createdAt,value
2023-05-21T00:01:54.954Z,8.73
2023-05-21T00:03:57.400Z,8.33
2023-05-21T00:06:01.617Z,7.75
2023-05-21T00:08:03.702Z,8.20
2023-05-21T00:10:06.518Z,8.83
2023-05-21T00:12:09.411Z,8.00
2023-05-21T00:14:11.227Z,8.80
2023-05-21T00:16:13.060Z,8.20
2023-05-21T00:18:14.896Z,8.13
2023-05-21T00:20:17.388Z,8.25
2023-05-21T00:22:20.158Z,7.80
2023-05-21T00:26:26.840Z,7.85
2023-05-21T00:28:28.586Z,8.75
2023-05-21T00:30:30.536Z,8.00
2023-05-21T00:32:32.361Z,8.00
2023-05-21T00:34:34.192Z,8.13
2023-05-21T00:36:35.961Z,7.30
2023-05-21T00:38:38.171Z,8.13
2023-05-21T00:40:41.351Z,9.32
2023-05-21T00:42:46.504Z,7.57
2023-05-21T00:44:48.335Z,7.90
2023-05-21T00:46:53.743Z,7.72
2023-05-21T00:48:58.125Z,8.80
2023-05-21T00:51:00.192Z,8.80
2023-05-21T00:53:02.223Z,8.70
2023-05-21T00:55:04.300Z,8.30
2023-05-21T00:57:06.754Z,8.00
2023-05-21T00:59:08.755Z,8.07
2023-05-21T01:01:13.848Z,8.60
2023-05-21T01:03:16.538Z,7.60
2023-05-21T01:05:19.170Z,8.05
2023-05-21T01:07:21.948Z,8.80
2023-05-21T01:11:39.476Z,7.55
2023-05-21T01:13:42.027Z,7.63
2023-05-21T01:15:44.974Z,7.57
2023-05-21T01:17:48.797Z,7.50
2023-05-21T01:19:52.705Z,8.00
2023-05-21T01:22:01.186Z,8.35
2023-05-21T01:24:07.581Z,7.45
2023-05-21T01:26:12.932Z,7.25
2023-05-21T01:28:15.089Z,7.57
2023-05-21T01:30:19.230Z,7.35
2023-05-21T01:32:31.339Z,7.80
2023-05-21T01:34:42.073Z,8.10
2023-05-21T01:36:49.433Z,7.60
2023-05-21T01:39:15.666Z,8.13
2023-05-21T01:41:18.980Z,7.65
2023-05-21T01:43:22.467Z,7.88
2023-05-21T01:45:25.452Z,7.55
2023-05-21T01:47:31.425Z,7.70
2023-05-21T01:49:33.485Z,7.57
2023-05-21T01:51:36.107Z,8.32
2023-05-21T01:53:40.763Z,8.10
2023-05-21T01:55:43.712Z,8.35
2023-05-21T01:57:45.609Z,7.88
2023-05-21T01:59:47.908Z,7.60
2023-05-21T02:01:49.815Z,6.88
2023-05-21T02:03:51.782Z,7.07
2023-05-21T02:05:55.714Z,7.72
2023-05-21T02:08:00.170Z,7.88
2023-05-21T02:10:02.356Z,7.47
2023-05-21T02:12:04.466Z,8.32
2023-05-21T02:14:07.982Z,8.13
2023-05-21T02:16:14.667Z,8.82
2023-05-21T02:18:16.958Z,8.07
2023-05-21T02:20:19.505Z,8.32
2023-05-21T02:22:21.250Z,7.18
2023-05-21T02:24:24.462Z,7.28
2023-05-21T02:26:27.173Z,7.85
2023-05-21T02:28:29.803Z,8.23
2023-05-21T02:30:31.571Z,7.25
2023-05-21T02:32:34.074Z,8.05
2023-05-21T02:34:37.369Z,8.02
2023-05-21T02:36:41.538Z,6.80
2023-05-21T02:38:43.746Z,8.05
2023-05-21T02:40:46.441Z,7.60
2023-05-21T02:42:48.211Z,7.55
2023-05-21T02:44:51.299Z,7.80
2023-05-21T02:46:53.091Z,7.30
2023-05-21T02:48:54.871Z,7.88
2023-05-21T02:50:56.684Z,7.90
2023-05-21T02:52:59.829Z,7.60
2023-05-21T02:55:01.737Z,7.72
2023-05-21T02:57:03.651Z,8.17
2023-05-21T02:59:05.536Z,7.23
2023-05-21T03:01:07.378Z,7.32
2023-05-21T03:03:09.231Z,8.10
2023-05-21T03:05:11.180Z,7.77
2023-05-21T03:07:14.503Z,8.03
2023-05-21T03:09:16.812Z,7.68
2023-05-21T03:11:20.091Z,8.07
2023-05-21T03:13:22.311Z,8.48
2023-05-21T03:15:24.359Z,8.02
2023-05-21T03:17:27.816Z,8.25
2023-05-21T03:19:31.933Z,7.60
2023-05-21T03:21:34.023Z,7.88
2023-05-21T03:23:35.833Z,8.23
2023-05-21T03:25:37.759Z,7.50
2023-05-21T03:27:40.240Z,8.27
2023-05-21T03:29:43.296Z,8.50
2023-05-21T03:31:45.262Z,7.95
2023-05-21T03:33:47.154Z,7.78
2023-05-21T03:35:49.128Z,7.85
2023-05-21T03:37:51.194Z,7.90
2023-05-21T03:39:52.989Z,8.25
2023-05-21T03:41:54.843Z,8.18
2023-05-21T03:43:56.615Z,7.97
2023-05-21T03:45:58.461Z,7.82
2023-05-21T03:48:01.952Z,8.27
2023-05-21T03:50:06.052Z,8.30
2023-05-21T03:52:07.952Z,8.32
2023-05-21T03:54:09.935Z,8.32
2023-05-21T03:56:12.158Z,7.83
2023-05-21T03:58:14.121Z,8.57
2023-05-21T04:00:16.085Z,8.40
2023-05-21T04:02:18.034Z,8.50
2023-05-21T04:04:19.956Z,8.13
2023-05-21T04:06:21.915Z,8.73
2023-05-21T04:08:24.253Z,8.30
2023-05-21T04:10:27.058Z,8.32
2023-05-21T04:14:30.769Z,8.77
2023-05-21T04:16:34.781Z,8.48
2023-05-21T04:18:36.790Z,7.95
2023-05-21T04:20:38.624Z,9.33
2023-05-21T04:22:40.722Z,8.80
2023-05-21T04:24:42.669Z,9.07
2023-05-21T04:26:44.663Z,9.10
2023-05-21T04:28:46.518Z,8.90
2023-05-21T04:30:49.932Z,9.63
2023-05-21T04:32:52.826Z,8.98
2023-05-21T04:34:54.826Z,9.02
2023-05-21T04:36:56.972Z,8.95
2023-05-21T04:38:58.864Z,8.15
2023-05-21T04:41:03.879Z,9.03
2023-05-21T04:43:05.875Z,8.50
2023-05-21T04:45:08.881Z,8.68
2023-05-21T04:47:12.331Z,8.82
2023-05-21T04:49:14.379Z,8.43
2023-05-21T04:51:16.265Z,8.73
2023-05-21T04:53:18.145Z,8.90
2023-05-21T04:55:20.038Z,8.00
2023-05-21T04:57:21.952Z,8.88
2023-05-21T04:59:23.759Z,8.17
2023-05-21T05:01:27.135Z,8.25
2023-05-21T05:03:30.153Z,8.68
2023-05-21T05:05:31.936Z,8.88
2023-05-21T05:07:33.761Z,8.07
2023-05-21T05:09:35.897Z,8.73
2023-05-21T05:11:37.689Z,9.23
2023-05-21T05:13:42.502Z,8.93
2023-05-21T05:15:44.373Z,8.43
2023-05-21T05:17:48.386Z,7.70
2023-05-21T05:19:50.701Z,8.10
2023-05-21T05:21:52.623Z,8.88
2023-05-21T05:23:54.481Z,8.18
2023-05-21T05:25:56.383Z,8.30
2023-05-21T05:27:58.204Z,8.25
2023-05-21T05:30:00.005Z,8.13
2023-05-21T05:32:01.767Z,8.32
2023-05-21T05:34:03.632Z,8.35
2023-05-21T05:36:05.572Z,7.93
2023-05-21T05:38:08.978Z,8.15
2023-05-21T05:40:11.070Z,7.88
2023-05-21T05:42:12.917Z,7.47
2023-05-21T05:44:14.775Z,8.10
2023-05-21T05:46:16.706Z,9.05
2023-05-21T05:48:18.657Z,7.93
2023-05-21T05:50:21.102Z,7.83
2023-05-21T05:52:22.913Z,7.53
2023-05-21T05:54:24.713Z,7.55
2023-05-21T05:56:27.051Z,8.37
2023-05-21T05:58:30.973Z,7.80
2023-05-21T06:00:32.947Z,8.18
2023-05-21T06:02:34.921Z,7.57
2023-05-21T06:04:36.865Z,8.03
2023-05-21T06:06:38.964Z,7.07
2023-05-21T06:08:40.876Z,8.20
2023-05-21T06:10:42.882Z,8.03
2023-05-21T06:12:44.690Z,8.43
2023-05-21T06:14:48.984Z,7.47
2023-05-21T06:16:50.969Z,7.28
2023-05-21T06:18:52.879Z,7.00
2023-05-21T06:20:55.984Z,7.50
2023-05-21T06:22:57.779Z,8.13
2023-05-21T06:24:59.636Z,7.50
2023-05-21T06:27:02.117Z,7.13
2023-05-21T06:29:04.257Z,7.10
2023-05-21T06:31:06.148Z,7.75
2023-05-21T06:33:08.124Z,7.20
2023-05-21T06:35:10.186Z,6.70
2023-05-21T06:37:12.093Z,8.02
2023-05-21T06:39:13.976Z,7.50
2023-05-21T06:41:15.875Z,7.00
2023-05-21T06:43:17.719Z,6.53
2023-05-21T06:45:20.607Z,7.32
2023-05-21T06:47:22.685Z,7.28
2023-05-21T06:49:24.741Z,6.55
2023-05-21T06:51:26.653Z,6.55
2023-05-21T06:53:28.456Z,6.27
2023-05-21T06:55:30.296Z,7.00
2023-05-21T06:57:32.132Z,7.27
2023-05-21T06:59:34.080Z,6.93
2023-05-21T07:01:35.963Z,7.60
2023-05-21T07:03:37.948Z,6.40
2023-05-21T07:05:40.165Z,7.03
2023-05-21T07:07:42.190Z,7.18
2023-05-21T07:09:44.043Z,6.60
2023-05-21T07:11:45.850Z,7.40
2023-05-21T07:13:47.738Z,7.67
2023-05-21T07:15:49.546Z,6.73
2023-05-21T07:17:51.449Z,6.60
2023-05-21T07:19:53.289Z,6.43
2023-05-21T07:21:56.600Z,7.25
2023-05-21T07:23:58.699Z,7.32
2023-05-21T07:26:00.707Z,7.05
2023-05-21T07:28:03.264Z,7.40
2023-05-21T07:30:07.109Z,7.43
2023-05-21T07:32:08.973Z,6.78
2023-05-21T07:34:10.855Z,7.03
2023-05-21T07:36:12.751Z,7.30
2023-05-21T07:38:14.730Z,6.97
2023-05-21T07:40:16.667Z,7.25
2023-05-21T07:42:18.408Z,6.78
2023-05-21T07:44:20.239Z,7.20
2023-05-21T07:46:22.112Z,7.27
2023-05-21T07:48:23.998Z,7.20
2023-05-21T07:50:25.939Z,6.90
2023-05-21T07:52:27.944Z,6.83
2023-05-21T07:54:29.779Z,7.85
2023-05-21T07:56:32.456Z,6.80
2023-05-21T07:58:35.272Z,6.57
2023-05-21T08:00:44.952Z,7.00
2023-05-21T08:02:46.896Z,7.22
2023-05-21T08:04:48.957Z,7.60
2023-05-21T08:06:51.449Z,7.38
2023-05-21T08:08:54.484Z,6.60
2023-05-21T08:10:56.345Z,7.38
2023-05-21T08:12:58.276Z,7.13
2023-05-21T08:15:00.535Z,7.27
2023-05-21T08:17:02.557Z,7.40
2023-05-21T08:19:04.622Z,7.03
2023-05-21T08:21:06.524Z,7.57
2023-05-21T08:23:08.458Z,7.50
2023-05-21T08:25:10.384Z,7.23
2023-05-21T08:27:12.271Z,7.63
2023-05-21T08:29:14.087Z,6.50
2023-05-21T08:31:19.203Z,7.28
2023-05-21T08:33:21.624Z,7.70
2023-05-21T08:35:23.494Z,7.82
2023-05-21T08:37:25.450Z,7.50
2023-05-21T08:39:27.232Z,7.43
2023-05-21T08:41:33.262Z,7.90
2023-05-21T08:43:37.765Z,7.40
2023-05-21T08:45:44.637Z,6.75
2023-05-21T08:47:49.589Z,6.90
2023-05-21T08:49:52.223Z,7.35
2023-05-21T08:51:55.285Z,7.70
2023-05-21T08:53:58.369Z,7.55
2023-05-21T08:56:01.635Z,7.55
2023-05-21T08:58:04.936Z,7.30
2023-05-21T09:00:07.492Z,8.10
2023-05-21T09:02:12.620Z,8.05
2023-05-21T09:04:21.183Z,7.53
2023-05-21T09:06:26.062Z,6.82
2023-05-21T09:08:31.321Z,6.95
2023-05-21T09:10:38.735Z,6.90
2023-05-21T09:12:40.873Z,6.97
2023-05-21T09:14:43.772Z,7.10
2023-05-21T09:16:48.709Z,6.57
2023-05-21T09:18:51.048Z,6.32
2023-05-21T09:20:54.036Z,6.70
2023-05-21T09:22:56.042Z,6.78
2023-05-21T09:24:57.893Z,5.63
2023-05-21T09:26:59.816Z,6.30
2023-05-21T09:29:01.655Z,6.10
2023-05-21T09:31:03.893Z,5.90
2023-05-21T09:33:05.768Z,6.30
2023-05-21T09:35:09.994Z,6.10
2023-05-21T09:37:23.854Z,5.50
2023-05-21T09:39:31.973Z,6.70
2023-05-21T09:41:36.045Z,6.47
2023-05-21T09:43:38.209Z,6.20
2023-05-21T09:45:54.578Z,5.70
2023-05-21T09:47:56.821Z,6.07
2023-05-21T09:49:59.099Z,6.45
2023-05-21T09:52:00.952Z,5.60
2023-05-21T09:54:03.646Z,5.87
2023-05-21T09:58:07.696Z,6.63
2023-05-21T10:00:17.661Z,6.22
2023-05-21T10:02:24.001Z,6.25
2023-05-21T10:04:26.216Z,6.13
2023-05-21T10:06:30.142Z,6.45
2023-05-21T10:08:41.131Z,6.20
2023-05-21T10:10:44.331Z,6.43
2023-05-21T10:12:55.186Z,6.63
2023-05-21T10:15:09.715Z,6.97
2023-05-21T10:17:12.755Z,7.32
2023-05-21T10:19:15.930Z,6.60
2023-05-21T10:21:18.397Z,6.20
2023-05-21T10:23:20.972Z,6.25
2023-05-21T10:27:25.041Z,6.85
2023-05-21T10:29:27.261Z,6.30
2023-05-21T10:31:29.852Z,6.32
2023-05-21T10:35:34.424Z,6.65
2023-05-21T10:39:39.283Z,6.47
2023-05-21T10:41:56.388Z,6.47
2023-05-21T10:44:27.623Z,6.40
2023-05-21T10:46:53.501Z,6.68
2023-05-21T10:49:16.622Z,6.10
2023-05-21T10:51:46.226Z,6.10
2023-05-21T10:54:26.469Z,6.13
2023-05-21T10:56:46.577Z,5.43
2023-05-21T10:59:22.135Z,5.53
2023-05-21T11:01:28.855Z,6.28
2023-05-21T11:03:34.343Z,5.85
2023-05-21T11:05:57.415Z,6.10
2023-05-21T11:08:01.529Z,5.65
2023-05-21T11:10:37.571Z,5.32
2023-05-21T11:13:15.390Z,5.78
2023-05-21T11:15:17.224Z,5.60
2023-05-21T11:17:40.162Z,5.77
2023-05-21T11:19:51.514Z,5.82
2023-05-21T11:21:55.660Z,5.63
2023-05-21T11:24:02.379Z,5.22
2023-05-21T11:26:07.108Z,5.88
2023-05-21T11:28:09.615Z,5.50
2023-05-21T11:32:20.608Z,6.22
2023-05-21T11:34:28.676Z,5.97
2023-05-21T11:36:30.679Z,5.50
2023-05-21T11:38:33.893Z,6.00
2023-05-21T11:40:36.226Z,6.32
2023-05-21T11:42:42.539Z,6.43
2023-05-21T11:44:48.575Z,5.70
2023-05-21T11:46:52.434Z,6.15
2023-05-21T11:48:55.482Z,5.68
2023-05-21T11:50:58.032Z,7.10
2023-05-21T11:53:00.075Z,6.07
2023-05-21T11:55:01.964Z,5.80
2023-05-21T11:57:09.918Z,6.80
2023-05-21T11:59:18.522Z,5.85
2023-05-21T12:01:26.632Z,5.85
2023-05-21T12:03:30.573Z,5.68
2023-05-21T12:05:45.031Z,5.85
2023-05-21T12:07:51.052Z,5.88
2023-05-21T12:09:53.178Z,6.30
2023-05-21T12:11:55.141Z,6.43
2023-05-21T12:13:57.419Z,5.90
2023-05-21T12:15:59.329Z,6.30
2023-05-21T12:18:01.316Z,5.88
2023-05-21T12:20:08.321Z,5.50
2023-05-21T12:22:10.198Z,5.63
2023-05-21T12:24:12.102Z,5.65
2023-05-21T12:26:14.370Z,5.55
2023-05-21T12:28:16.426Z,5.97
2023-05-21T12:30:18.487Z,5.47
2023-05-21T12:32:21.566Z,5.88
2023-05-21T12:34:44.710Z,5.32
2023-05-21T12:38:50.556Z,6.15
2023-05-21T12:40:52.523Z,5.40
2023-05-21T12:42:54.316Z,5.45
2023-05-21T12:44:57.019Z,5.32
2023-05-21T12:46:59.693Z,5.32
2023-05-21T12:51:03.354Z,4.93
2023-05-21T12:53:08.724Z,4.93
2023-05-21T12:55:13.798Z,5.22
2023-05-21T12:57:17.448Z,5.40
2023-05-21T12:59:19.288Z,5.28
2023-05-21T13:01:21.966Z,5.57
2023-05-21T13:03:24.133Z,5.65
2023-05-21T13:05:26.127Z,5.28
2023-05-21T13:07:29.558Z,5.72
2023-05-21T13:09:31.396Z,5.72
2023-05-21T13:11:33.227Z,4.85
2023-05-21T13:13:35.065Z,5.82
2023-05-21T13:15:36.911Z,4.80
2023-05-21T13:17:38.904Z,5.13
2023-05-21T13:19:40.747Z,5.72
2023-05-21T13:21:42.532Z,4.75
2023-05-21T13:23:44.352Z,5.00
2023-05-21T13:25:46.142Z,5.38
2023-05-21T13:27:49.305Z,5.05
2023-05-21T13:29:51.089Z,5.30
2023-05-21T13:31:52.849Z,5.63
2023-05-21T13:33:54.701Z,5.40
2023-05-21T13:35:56.665Z,5.38
2023-05-21T13:37:58.444Z,5.65
2023-05-21T13:40:00.944Z,5.70
2023-05-21T13:42:02.834Z,5.47
2023-05-21T13:44:04.838Z,5.35
2023-05-21T13:46:06.667Z,5.82
2023-05-21T13:48:08.455Z,5.68
2023-05-21T13:50:10.702Z,5.57
2023-05-21T13:52:12.607Z,5.10
2023-05-21T13:54:15.690Z,5.47
2023-05-21T13:56:17.669Z,5.63
2023-05-21T13:58:19.496Z,5.80
2023-05-21T14:00:21.393Z,5.95
2023-05-21T14:02:23.522Z,5.75
2023-05-21T14:04:25.768Z,5.20
2023-05-21T14:06:27.611Z,5.28
2023-05-21T14:08:29.552Z,5.75
2023-05-21T14:10:31.361Z,5.07
2023-05-21T14:12:33.451Z,5.18
2023-05-21T14:14:36.167Z,5.30
2023-05-21T14:16:38.026Z,5.40
2023-05-21T14:18:39.841Z,5.70
2023-05-21T14:20:41.690Z,5.15
2023-05-21T14:22:43.555Z,5.03
2023-05-21T14:24:46.133Z,5.70
2023-05-21T14:28:49.776Z,5.53
2023-05-21T14:30:51.611Z,5.57
2023-05-21T14:32:54.000Z,4.85
2023-05-21T14:34:56.933Z,5.20
2023-05-21T14:36:58.778Z,5.38
2023-05-21T14:39:00.800Z,4.57
2023-05-21T14:41:02.723Z,4.93
2023-05-21T14:43:05.750Z,4.40
2023-05-21T14:45:18.558Z,4.93
2023-05-21T14:47:21.318Z,5.13
2023-05-21T14:49:23.361Z,5.00
2023-05-21T14:51:25.509Z,5.32
2023-05-21T14:53:27.368Z,4.93
2023-05-21T14:55:29.715Z,4.55
2023-05-21T14:57:31.665Z,5.25
2023-05-21T14:59:33.591Z,4.63
2023-05-21T15:01:35.857Z,4.93
2023-05-21T15:03:37.872Z,5.00
2023-05-21T15:05:39.834Z,5.40
2023-05-21T15:07:41.748Z,5.15
2023-05-21T15:09:43.524Z,4.50
2023-05-21T15:11:46.109Z,4.95
2023-05-21T15:13:47.980Z,5.20
2023-05-21T15:15:50.070Z,4.55
2023-05-21T15:17:51.974Z,4.68
2023-05-21T15:19:53.860Z,4.65
2023-05-21T15:21:55.708Z,4.82
2023-05-21T15:23:57.535Z,5.00
2023-05-21T15:25:59.346Z,4.80
2023-05-21T15:28:01.237Z,4.93
2023-05-21T15:30:04.464Z,4.82
2023-05-21T15:32:06.551Z,5.13
2023-05-21T15:34:08.509Z,5.03
2023-05-21T15:36:10.401Z,4.45
2023-05-21T15:38:12.318Z,4.13
2023-05-21T15:40:14.241Z,4.50
2023-05-21T15:42:16.139Z,4.57
2023-05-21T15:44:17.953Z,4.90
2023-05-21T15:46:19.817Z,4.82
2023-05-21T15:48:22.938Z,4.60
2023-05-21T15:50:24.883Z,4.88
2023-05-21T15:52:26.749Z,4.53
2023-05-21T15:54:28.557Z,4.30
2023-05-21T15:56:30.887Z,4.78
2023-05-21T15:58:32.814Z,4.53
2023-05-21T16:00:34.957Z,4.30
2023-05-21T16:02:37.063Z,4.57
2023-05-21T16:04:38.939Z,4.43
2023-05-21T16:06:40.882Z,4.70
2023-05-21T16:08:42.684Z,4.40
2023-05-21T16:10:45.939Z,3.90
2023-05-21T16:12:47.820Z,5.10
2023-05-21T16:14:52.359Z,4.72
2023-05-21T16:16:54.303Z,5.00
2023-05-21T16:18:56.180Z,4.70
2023-05-21T16:20:58.156Z,5.28
2023-05-21T16:22:59.974Z,4.97
2023-05-21T16:25:01.856Z,5.88
2023-05-21T16:27:03.784Z,4.72
2023-05-21T16:29:05.771Z,4.43
2023-05-21T16:31:08.573Z,4.65
2023-05-21T16:33:12.345Z,4.47
2023-05-21T16:35:14.119Z,4.43
2023-05-21T16:37:15.967Z,4.70
2023-05-21T16:39:17.755Z,4.60
2023-05-21T16:41:19.827Z,5.63
2023-05-21T16:43:21.614Z,5.80
2023-05-21T16:45:23.568Z,5.07
2023-05-21T16:47:25.426Z,5.07
2023-05-21T16:49:27.715Z,5.53
2023-05-21T16:51:29.615Z,4.97
2023-05-21T16:53:31.656Z,5.07
2023-05-21T16:55:35.127Z,5.30
2023-05-21T16:57:37.433Z,4.40
2023-05-21T16:59:39.232Z,4.95
2023-05-21T17:01:41.094Z,4.75
2023-05-21T17:03:43.574Z,4.90
2023-05-21T17:07:47.673Z,5.50
2023-05-21T17:09:49.473Z,3.92
2023-05-21T17:11:51.362Z,4.60
2023-05-21T17:13:53.177Z,4.20
2023-05-21T17:15:55.162Z,4.25
2023-05-21T17:17:57.002Z,4.30
2023-05-21T17:19:59.785Z,4.18
2023-05-21T17:22:01.614Z,3.83
2023-05-21T17:24:03.658Z,4.43
2023-05-21T17:26:07.085Z,4.38
2023-05-21T17:28:08.917Z,4.25
2023-05-21T17:30:11.249Z,4.22
2023-05-21T17:32:13.308Z,4.28
2023-05-21T17:34:15.196Z,4.30
2023-05-21T17:36:17.055Z,4.13
2023-05-21T17:38:19.000Z,4.20
2023-05-21T17:40:23.693Z,4.90
2023-05-21T17:42:25.553Z,4.75
2023-05-21T17:44:27.358Z,4.82
2023-05-21T17:46:29.213Z,4.18
2023-05-21T17:48:31.036Z,4.10
2023-05-21T17:50:34.306Z,4.63
2023-05-21T17:52:36.164Z,4.13
2023-05-21T17:54:38.101Z,4.18
2023-05-21T17:56:39.992Z,4.57
2023-05-21T17:58:41.845Z,4.90
2023-05-21T18:00:43.689Z,3.90
2023-05-21T18:02:45.644Z,4.40
2023-05-21T18:04:47.508Z,4.30
2023-05-21T18:06:49.387Z,4.88
2023-05-21T18:08:51.224Z,5.20
2023-05-21T18:10:53.059Z,4.90
2023-05-21T18:12:54.949Z,4.93
2023-05-21T18:14:56.973Z,4.40
2023-05-21T18:16:58.939Z,4.97
2023-05-21T18:19:05.689Z,4.65
2023-05-21T18:21:07.695Z,5.00
2023-05-21T18:23:11.465Z,4.70
2023-05-21T18:25:13.345Z,4.80
2023-05-21T18:27:15.933Z,5.00
2023-05-21T18:29:17.845Z,4.85
2023-05-21T18:31:20.261Z,4.90
2023-05-21T18:33:22.113Z,5.75
2023-05-21T18:35:23.897Z,5.87
2023-05-21T18:37:27.267Z,5.63
2023-05-21T18:39:29.131Z,5.85
2023-05-21T18:41:31.166Z,5.57
2023-05-21T18:43:33.014Z,5.93
2023-05-21T18:45:34.808Z,6.20
2023-05-21T18:47:36.817Z,5.97
2023-05-21T18:49:39.200Z,5.93
2023-05-21T18:51:41.237Z,6.25
2023-05-21T18:53:43.097Z,6.10
2023-05-21T18:55:45.066Z,6.53
2023-05-21T18:57:46.886Z,6.40
2023-05-21T18:59:48.666Z,6.97
2023-05-21T19:01:50.581Z,6.73
2023-05-21T19:03:52.410Z,6.30
2023-05-21T19:05:54.703Z,7.07
2023-05-21T19:07:59.187Z,7.28
2023-05-21T19:10:01.228Z,6.32
2023-05-21T19:12:03.211Z,7.30
2023-05-21T19:14:05.390Z,7.10
2023-05-21T19:16:10.922Z,7.05
2023-05-21T19:18:14.288Z,7.22
2023-05-21T19:20:24.122Z,6.95
2023-05-21T19:22:27.345Z,7.30
2023-05-21T19:24:29.129Z,7.25
2023-05-21T19:26:30.920Z,7.47
2023-05-21T19:28:32.899Z,7.60
2023-05-21T19:30:36.526Z,7.45
2023-05-21T19:32:38.593Z,8.35
2023-05-21T19:34:40.507Z,7.63
2023-05-21T19:36:53.023Z,7.75
2023-05-21T19:38:55.814Z,7.57
2023-05-21T19:40:57.648Z,7.77
2023-05-21T19:42:59.428Z,7.67
2023-05-21T19:45:01.256Z,7.70
2023-05-21T19:47:03.567Z,7.87
2023-05-21T19:49:05.910Z,7.65
2023-05-21T19:51:08.123Z,7.45
2023-05-21T19:53:10.550Z,7.90
2023-05-21T19:55:14.012Z,8.60
2023-05-21T19:57:16.512Z,7.25
2023-05-21T19:59:18.923Z,8.23
2023-05-21T20:01:21.765Z,7.82
2023-05-21T20:03:25.234Z,8.35
2023-05-21T20:05:27.445Z,7.78
2023-05-21T20:07:29.745Z,7.28
2023-05-21T20:09:31.913Z,7.78
2023-05-21T20:11:34.731Z,7.80
2023-05-21T20:15:39.021Z,7.82
2023-05-21T20:17:44.064Z,8.18
2023-05-21T20:19:49.767Z,8.35
2023-05-21T20:21:52.006Z,7.60
2023-05-21T20:23:54.506Z,7.78
2023-05-21T20:25:56.715Z,7.80
2023-05-21T20:28:01.415Z,8.45
2023-05-21T20:30:03.726Z,7.55
2023-05-21T20:32:06.222Z,8.07
2023-05-21T20:34:09.419Z,8.48
2023-05-21T20:36:13.505Z,8.45
2023-05-21T20:38:16.008Z,8.15
2023-05-21T20:40:19.009Z,8.05
2023-05-21T20:42:21.728Z,8.43
2023-05-21T20:46:28.329Z,8.50
2023-05-21T20:48:31.959Z,8.52
2023-05-21T20:50:35.194Z,7.63
2023-05-21T20:52:37.353Z,7.95
2023-05-21T20:54:39.528Z,8.18
2023-05-21T20:56:42.819Z,8.20
2023-05-21T20:58:45.498Z,7.95
2023-05-21T21:00:48.433Z,8.07
2023-05-21T21:02:50.675Z,8.50
2023-05-21T21:04:53.828Z,7.78
2023-05-21T21:06:56.126Z,8.73
2023-05-21T21:08:58.605Z,8.13
2023-05-21T21:11:01.061Z,8.25
2023-05-21T21:13:03.621Z,8.57
2023-05-21T21:15:06.072Z,8.43
2023-05-21T21:17:08.365Z,9.27
2023-05-21T21:19:10.690Z,8.65
2023-05-21T21:21:12.936Z,8.18
2023-05-21T21:23:15.164Z,8.45
2023-05-21T21:25:17.492Z,8.32
2023-05-21T21:27:19.726Z,8.75
2023-05-21T21:29:21.920Z,9.00
2023-05-21T21:31:24.706Z,8.32
2023-05-21T21:33:27.044Z,8.60
2023-05-21T21:35:29.474Z,9.02
2023-05-21T21:37:31.636Z,8.82
2023-05-21T21:39:33.838Z,8.35
2023-05-21T21:41:36.043Z,8.45
2023-05-21T21:43:38.301Z,9.68
2023-05-21T21:45:40.595Z,8.80
2023-05-21T21:47:42.749Z,8.25
2023-05-21T21:49:44.980Z,9.18
2023-05-21T21:51:48.375Z,9.05
2023-05-21T21:53:50.628Z,8.77
2023-05-21T21:55:53.396Z,9.57
2023-05-21T21:59:58.017Z,8.43
2023-05-21T22:02:00.518Z,8.85
2023-05-21T22:04:02.723Z,9.10
2023-05-21T22:06:05.037Z,9.27
2023-05-21T22:08:07.230Z,9.13
2023-05-21T22:10:09.550Z,10.05
2023-05-21T22:12:12.105Z,9.75
2023-05-21T22:14:14.290Z,9.60
2023-05-21T22:16:16.562Z,8.38
2023-05-21T22:18:28.345Z,9.63
2023-05-21T22:20:39.177Z,9.70
2023-05-21T22:22:41.538Z,9.90
2023-05-21T22:24:43.738Z,8.85
2023-05-21T22:26:45.886Z,9.90
2023-05-21T22:28:48.064Z,9.35
2023-05-21T22:30:50.257Z,10.43
2023-05-21T22:32:52.610Z,10.50
2023-05-21T22:34:54.869Z,10.10
2023-05-21T22:36:57.109Z,10.25
2023-05-21T22:38:59.382Z,10.75
2023-05-21T22:41:01.591Z,10.48
2023-05-21T22:43:03.848Z,10.05
2023-05-21T22:45:06.719Z,10.30
2023-05-21T22:47:10.075Z,10.80
2023-05-21T22:49:12.281Z,10.73
2023-05-21T22:51:14.661Z,11.30
2023-05-21T22:53:17.520Z,11.15
2023-05-21T22:55:19.770Z,10.55
2023-05-21T22:57:22.032Z,10.25
2023-05-21T22:59:24.237Z,10.55
2023-05-21T23:01:26.463Z,11.10
2023-05-21T23:03:29.844Z,10.95
2023-05-21T23:05:32.072Z,10.70
2023-05-21T23:07:34.308Z,11.18
2023-05-21T23:09:36.599Z,11.70
2023-05-21T23:11:38.797Z,9.82
2023-05-21T23:13:41.311Z,11.32
2023-05-21T23:15:43.839Z,11.38
2023-05-21T23:17:46.935Z,11.20
2023-05-21T23:21:54.815Z,11.60
2023-05-21T23:23:57.392Z,10.25
2023-05-21T23:25:59.682Z,11.60
2023-05-21T23:28:01.970Z,11.30
2023-05-21T23:30:04.416Z,11.98
2023-05-21T23:32:06.724Z,11.85
2023-05-21T23:34:09.576Z,11.05
2023-05-21T23:38:13.927Z,11.55
2023-05-21T23:40:16.148Z,11.23
2023-05-21T23:42:18.522Z,11.77
2023-05-21T23:44:21.037Z,11.20
2023-05-21T23:46:23.371Z,12.68
2023-05-21T23:48:25.771Z,11.95
2023-05-21T23:50:28.049Z,12.13
2023-05-21T23:52:30.493Z,11.57
2023-05-21T23:54:32.665Z,11.57
2023-05-21T23:56:34.933Z,11.77
2023-05-21T23:58:37.130Z,12.05
